Data for 02/22/2006

Time Sea-Level Adjusted Pressure Absolute Pressure Temperature Relative Humidity Dew Point   
(mb) (inHg) (mb) (inHg) (C) (F) (%) (C) (F)
00:05 1011 29.85 840 24.81 -2.1 28.3 54 -10.2 13.7
00:10 1011 29.85 840 24.81 -2 28.4 54 -10.1 13.8
00:15 1011 29.85 840 24.81 -2 28.4 54 -10.1 13.8
00:20 1011 29.85 840 24.81 -2 28.4 54 -10.2 13.6
00:25 1011 29.85 840 24.81 -2 28.4 54 -10.2 13.7
00:30 1011 29.85 840 24.81 -2.1 28.3 53 -10.4 13.3
00:35 1011 29.85 840 24.81 -2 28.4 54 -10.2 13.7
00:40 1010 29.83 840 24.81 -2 28.4 53 -10.4 13.3
00:45 1010 29.83 840 24.81 -1.9 28.6 52 -10.6 13
00:50 1010 29.83 840 24.81 -1.8 28.7 51 -10.6 12.9
00:55 1010 29.83 840 24.81 -1.8 28.8 51 -10.8 12.6
01:00 1010 29.83 840 24.81 -1.7 28.9 50 -10.7 12.7
01:05 1010 29.83 840 24.81 -1.8 28.8 51 -10.6 12.9
01:10 1010 29.83 840 24.81 -1.8 28.7 52 -10.5 13
01:15 1011 29.85 840 24.81 -1.8 28.7 52 -10.5 13
01:20 1010 29.83 840 24.81 -1.9 28.6 52 -10.5 13.2
01:25 1010 29.83 840 24.81 -1.9 28.5 52 -10.5 13
01:30 1010 29.83 840 24.81 -1.9 28.6 51 -10.7 12.7
01:35 1011 29.85 840 24.81 -1.8 28.7 51 -10.6 12.9
01:40 1010 29.83 840 24.81 -1.9 28.6 51 -10.7 12.8
01:45 1010 29.83 840 24.81 -1.9 28.7 52 -10.6 13
01:50 1010 29.83 840 24.81 -1.8 28.8 51 -10.7 12.8
01:55 1010 29.83 840 24.81 -1.8 28.7 51 -10.8 12.6
02:00 1010 29.83 840 24.81 -1.8 28.7 51 -10.7 12.7
02:05 1010 29.83 840 24.81 -1.8 28.8 50 -10.8 12.5
02:10 1010 29.83 840 24.81 -1.8 28.8 49 -11.1 12
02:15 1010 29.83 840 24.81 -1.6 29.2 49 -11 12.1
02:20 1010 29.83 840 24.81 -1.6 29.1 50 -10.8 12.6
02:25 1011 29.85 840 24.81 -1.8 28.8 51 -10.5 13
02:30 1011 29.85 840 24.81 -1.8 28.8 51 -10.6 12.9
02:35 1010 29.83 840 24.81 -1.8 28.7 53 -10.3 13.4
02:40 1010 29.83 840 24.81 -1.9 28.6 51 -10.6 12.9
02:45 1010 29.83 840 24.81 -1.8 28.8 52 -10.3 13.5
02:50 1010 29.83 840 24.81 -1.8 28.7 52 -10.4 13.2
02:55 1010 29.83 840 24.81 -1.9 28.7 54 -9.9 14.2
03:00 1010 29.83 840 24.81 -1.9 28.5 53 -10.3 13.5
03:05 1010 29.83 839 24.78 -1.9 28.7 54 -10 14
03:10 1010 29.83 839 24.78 -1.8 28.7 55 -9.8 14.4
03:15 1010 29.83 839 24.78 -1.9 28.7 55 -9.7 14.6
03:20 1010 29.83 839 24.78 -1.8 28.7 55 -9.7 14.6
03:25 1010 29.83 839 24.78 -1.8 28.8 55 -9.7 14.5
03:30 1010 29.83 839 24.78 -1.7 28.9 55 -9.7 14.5
03:35 1010 29.83 839 24.78 -1.7 29 54 -9.9 14.2
03:40 1010 29.83 839 24.78 -1.7 28.9 55 -9.7 14.6
03:45 1010 29.83 839 24.78 -1.7 28.9 55 -9.7 14.5
03:50 1010 29.83 839 24.78 -1.8 28.8 55 -9.7 14.5
03:55 1010 29.83 839 24.78 -1.7 29 54 -9.8 14.4
04:00 1010 29.83 839 24.78 -1.7 28.9 54 -9.9 14.3
04:05 1010 29.83 839 24.78 -1.6 29.2 53 -10.1 13.9
04:10 1010 29.83 839 24.78 -1.6 29.1 53 -9.9 14.1
04:15 1010 29.83 839 24.78 -1.6 29.1 53 -9.9 14.2
04:20 1010 29.83 839 24.78 -1.7 29 54 -9.8 14.3
04:25 1010 29.83 839 24.78 -1.7 28.9 55 -9.6 14.7
04:30 1010 29.83 839 24.78 -1.9 28.7 55 -9.8 14.4
04:35 1010 29.83 839 24.78 -1.8 28.7 55 -9.7 14.6
04:40 1010 29.83 839 24.78 -1.9 28.7 55 -9.7 14.6
04:45 1010 29.83 839 24.78 -1.9 28.7 55 -9.7 14.5
04:50 1010 29.83 839 24.78 -1.8 28.7 56 -9.5 14.8
04:55 1010 29.83 839 24.78 -1.9 28.6 55 -9.7 14.6
05:00 1010 29.83 839 24.78 -1.7 28.9 54 -9.9 14.2
05:05 1010 29.83 839 24.78 -1.6 29.1 54 -9.7 14.6
05:10 1010 29.83 839 24.78 -1.6 29.1 55 -9.6 14.8
05:15 1010 29.83 839 24.78 -1.6 29.1 54 -9.8 14.3
05:20 1010 29.83 839 24.78 -1.5 29.2 53 -9.9 14.1
05:25 1010 29.83 839 24.78 -1.6 29.2 54 -9.8 14.4
05:30 1010 29.83 839 24.78 -1.5 29.3 54 -9.7 14.5
05:35 1010 29.83 839 24.78 -1.4 29.5 53 -9.9 14.3
05:40 1010 29.83 839 24.78 -1.2 29.9 52 -9.8 14.4
05:45 1010 29.83 839 24.78 -1.2 29.9 54 -9.4 15.1
05:50 1010 29.83 839 24.78 -1.2 29.8 52 -9.7 14.5
05:55 1010 29.83 839 24.78 -1.1 30.1 52 -9.6 14.7
06:00 1010 29.83 839 24.78 -1 30.1 52 -9.8 14.4
06:05 1010 29.83 839 24.78 -1.1 30.1 53 -9.4 15.1
06:10 1010 29.83 839 24.78 -1.2 29.8 53 -9.7 14.6
06:15 1010 29.83 839 24.78 -1.2 29.9 53 -9.5 14.8
06:20 1010 29.83 839 24.78 -1.1 30 54 -9.2 15.5
06:25 1010 29.83 839 24.78 -1.2 29.8 57 -8.8 16.2
06:30 1010 29.83 839 24.78 -1.2 29.8 56 -9 15.8
06:35 1010 29.83 839 24.78 -1.3 29.7 56 -9 15.7
06:40 1010 29.83 839 24.78 -1.3 29.7 56 -8.9 16
06:45 1010 29.83 839 24.78 -1.3 29.7 56 -9 15.8
06:50 1010 29.83 839 24.78 -1.3 29.6 56 -9 15.7
06:55 1010 29.83 839 24.78 -1.3 29.7 57 -8.9 16
07:00 1010 29.83 839 24.78 -1.3 29.6 57 -8.9 16
07:05 1010 29.83 839 24.78 -1.2 29.8 57 -8.7 16.4
07:10 1010 29.83 839 24.78 -1.2 29.8 57 -8.7 16.3
07:15 1010 29.83 839 24.78 -1.2 29.9 57 -8.6 16.6
07:20 1010 29.83 839 24.78 -1.2 29.8 57 -8.6 16.5
07:25 1010 29.83 839 24.78 -1.2 29.9 57 -8.6 16.5
07:30 1010 29.83 839 24.78 -1.1 30 57 -8.5 16.7
07:35 1010 29.83 839 24.78 -1.2 29.8 57 -8.7 16.4
07:40 1010 29.83 839 24.78 -1.2 29.9 56 -8.8 16.2
07:45 1010 29.83 839 24.78 -1.1 30 57 -8.7 16.4
07:50 1010 29.83 839 24.78 -1.1 30 57 -8.7 16.4
07:55 1010 29.83 839 24.78 -1.1 30 57 -8.6 16.5
08:00 1010 29.83 839 24.78 -1 30.2 56 -8.8 16.1
08:05 1010 29.83 839 24.78 -1 30.2 56 -8.8 16.2
08:10 1010 29.83 839 24.78 -0.9 30.3 55 -8.8 16.2
08:15 1010 29.83 839 24.78 -0.8 30.5 55 -8.8 16.1
08:20 1010 29.83 839 24.78 -0.8 30.6 55 -8.7 16.3
08:25 1010 29.83 839 24.78 -0.7 30.7 54 -8.9 15.9
08:30 1010 29.83 839 24.78 -0.6 30.8 55 -8.6 16.4
08:35 1010 29.83 839 24.78 -0.6 30.8 54 -8.9 16.1
08:40 1010 29.83 839 24.78 -0.6 31 54 -8.7 16.4
08:45 1010 29.83 839 24.78 -0.5 31.1 54 -8.8 16.2
08:50 1010 29.83 839 24.78 -0.6 31 54 -8.7 16.4
08:55 1010 29.83 839 24.78 -0.6 31 55 -8.4 16.8
09:00 1010 29.83 839 24.78 -0.5 31.1 55 -8.4 16.8
09:05 1010 29.83 839 24.78 -0.4 31.3 53 -8.7 16.3
09:10 1010 29.83 839 24.78 -0.3 31.4 53 -8.8 16.2
09:15 1010 29.83 839 24.78 -0.3 31.5 52 -8.9 16
09:20 1010 29.83 839 24.78 -0.1 31.7 52 -8.9 15.9
09:25 1010 29.83 839 24.78 -0.1 31.9 51 -9 15.8
09:30 1010 29.83 839 24.78 -0 31.9 52 -8.7 16.3
09:35 1010 29.83 839 24.78 0 32.1 51 -9 15.9
09:40 1010 29.83 840 24.81 0.2 32.3 50 -9 15.8
09:45 1010 29.83 840 24.81 0.2 32.3 51 -8.8 16.1
09:50 1010 29.83 840 24.81 0.2 32.4 51 -8.7 16.4
09:55 1010 29.83 840 24.81 0.3 32.6 50 -8.9 16.1
10:00 1010 29.83 840 24.81 0.4 32.7 49 -9.2 15.4
10:05 1010 29.83 840 24.81 0.6 33.1 48 -9.1 15.7
10:10 1010 29.83 840 24.81 0.7 33.3 49 -8.9 16.1
10:15 1010 29.83 840 24.81 0.8 33.4 50 -8.5 16.7
10:20 1010 29.83 840 24.81 1 33.7 47 -9 15.8
10:25 1010 29.83 840 24.81 1.1 34.1 46 -9.3 15.3
10:30 1010 29.83 840 24.81 1.4 34.5 45 -9.3 15.3
10:35 1010 29.83 840 24.81 1.4 34.6 44 -9.4 15.1
10:40 1010 29.83 840 24.81 1.5 34.7 44 -9.4 15
10:45 1010 29.83 840 24.81 1.5 34.7 44 -9.5 14.9
10:50 1011 29.85 840 24.81 1.5 34.6 44 -9.5 14.8
10:55 1011 29.85 840 24.81 1.6 34.8 43 -9.6 14.7
11:00 1011 29.85 840 24.81 1.6 34.9 43 -9.8 14.4
11:05 1011 29.85 840 24.81 1.7 35 43 -9.7 14.6
11:10 1011 29.85 840 24.81 1.8 35.2 43 -9.4 15
11:15 1011 29.85 840 24.81 1.9 35.5 43 -9.4 15.1
11:20 1011 29.85 840 24.81 1.8 35.3 42 -9.7 14.5
11:25 1011 29.85 840 24.81 1.8 35.3 42 -9.9 14.3
11:30 1011 29.85 840 24.81 1.8 35.2 42 -9.7 14.5
11:35 1011 29.85 840 24.81 1.9 35.4 43 -9.6 14.8
11:40 1011 29.85 840 24.81 2 35.6 43 -9.4 15.1
11:45 1011 29.85 840 24.81 2 35.7 40 -10.1 13.8
11:50 1011 29.85 840 24.81 2.1 35.8 42 -9.5 14.9
11:55 1011 29.85 840 24.81 2.1 35.8 42 -9.5 15
12:00 1011 29.85 840 24.81 2.1 35.7 41 -9.8 14.3
12:05 1011 29.85 840 24.81 2.2 36 39 -10.3 13.5
12:10 1011 29.85 840 24.81 2.4 36.3 41 -9.7 14.6
12:15 1011 29.85 840 24.81 2.4 36.4 39 -10.1 13.8
12:20 1011 29.85 840 24.81 2.5 36.5 41 -9.6 14.7
12:25 1011 29.85 840 24.81 2.5 36.5 41 -9.5 14.9
12:30 1011 29.85 840 24.81 2.4 36.4 41 -9.6 14.8
12:35 1011 29.85 840 24.81 2.5 36.5 40 -9.7 14.6
12:40 1011 29.85 840 24.81 2.6 36.6 38 -10.4 13.2
12:45 1011 29.85 840 24.81 2.7 36.8 38 -10.2 13.7
12:50 1011 29.85 840 24.81 2.7 36.9 37 -10.5 13.1
12:55 1011 29.85 840 24.81 2.7 36.9 36 -10.9 12.3
13:00 1011 29.85 840 24.81 2.7 36.9 37 -10.6 12.8
13:05 1011 29.85 840 24.81 2.7 36.9 38 -10.2 13.6
13:10 1011 29.85 840 24.81 2.8 37.1 38 -10.1 13.9
13:15 1011 29.85 840 24.81 2.9 37.3 38 -9.9 14.2
13:20 1011 29.85 840 24.81 3 37.3 39 -9.8 14.4
13:25 1011 29.85 840 24.81 3 37.4 40 -9.4 15.2
13:30 1011 29.85 840 24.81 3 37.4 40 -9.3 15.3
13:35 1011 29.85 840 24.81 2.9 37.2 40 -9.3 15.3
13:40 1011 29.85 840 24.81 2.9 37.3 39 -9.6 14.8
13:45 1011 29.85 840 24.81 2.9 37.3 39 -9.7 14.5
13:50 1011 29.85 840 24.81 2.9 37.1 39 -9.9 14.1
13:55 1011 29.85 840 24.81 2.9 37.3 38 -10.1 13.9
14:00 1011 29.85 840 24.81 2.8 37.1 39 -9.8 14.4
14:05 1011 29.85 840 24.81 2.9 37.3 40 -9.4 15.2
14:10 1011 29.85 840 24.81 3 37.3 38 -10.2 13.7
14:15 1011 29.85 840 24.81 2.9 37.3 39 -9.8 14.3
14:20 1011 29.85 840 24.81 2.9 37.2 39 -9.7 14.5
14:25 1011 29.85 840 24.81 2.8 37.1 40 -9.6 14.7
14:30 1011 29.85 840 24.81 2.8 37.1 40 -9.6 14.8
14:35 1011 29.85 840 24.81 2.9 37.2 40 -9.3 15.3
14:40 1011 29.85 840 24.81 3 37.3 41 -9 15.8
14:45 1011 29.85 840 24.81 3 37.3 40 -9.4 15
14:50 1011 29.85 840 24.81 2.9 37.2 38 -10.2 13.7
14:55 1011 29.85 840 24.81 3.1 37.6 37 -10.2 13.7
15:00 1011 29.85 840 24.81 3.3 37.9 38 -9.7 14.6
15:05 1011 29.85 840 24.81 3.3 38 36 -10.4 13.3
15:10 1011 29.85 840 24.81 3.3 37.9 35 -10.6 12.8
15:15 1011 29.85 840 24.81 3.3 37.9 34 -11.1 12.1
15:20 1011 29.85 840 24.81 3.4 38.1 34 -11.1 12
15:25 1011 29.85 840 24.81 3.5 38.3 34 -11.1 12
15:30 1011 29.85 841 24.83 3.8 38.9 34 -10.8 12.6
15:35 1011 29.85 841 24.83 3.8 38.8 32 -11.6 11
15:40 1011 29.85 841 24.83 3.9 39 32 -11.3 11.6
15:45 1012 29.88 841 24.83 4 39.2 33 -10.8 12.6
15:50 1012 29.88 841 24.83 3.6 38.5 34 -10.8 12.6
15:55 1012 29.88 841 24.83 3.3 37.9 35 -10.6 12.9
16:00 1012 29.88 841 24.83 3 37.5 36 -10.7 12.8
16:05 1012 29.88 841 24.83 3 37.3 35 -11.1 12
16:10 1012 29.88 841 24.83 2.9 37.3 36 -10.6 12.9
16:15 1012 29.88 841 24.83 2.8 37 38 -10.1 13.8
16:20 1012 29.88 841 24.83 2.7 36.9 37 -10.7 12.8
16:25 1012 29.88 841 24.83 2.8 37 36 -10.9 12.4
16:30 1012 29.88 842 24.86 2.7 36.8 38 -10.4 13.3
16:35 1012 29.88 842 24.86 2.5 36.5 38 -10.5 13
16:40 1012 29.88 842 24.86 2.5 36.4 37 -10.9 12.4
16:45 1013 29.91 842 24.86 2.5 36.5 39 -10.2 13.7
16:50 1012 29.88 842 24.86 2.4 36.3 36 -11.3 11.7
16:55 1012 29.88 842 24.86 2.4 36.2 38 -10.6 12.9
17:00 1013 29.91 842 24.86 2.3 36.1 38 -10.5 13.2
17:05 1013 29.91 842 24.86 2.3 36.1 40 -10.1 13.9
17:10 1013 29.91 842 24.86 2.1 35.8 40 -10.1 13.8
17:15 1013 29.91 842 24.86 2 35.5 42 -9.6 14.7
17:20 1013 29.91 842 24.86 1.7 35.1 43 -9.7 14.5
17:25 1013 29.91 842 24.86 1.6 34.9 43 -9.6 14.7
17:30 1013 29.91 842 24.86 1.6 34.8 44 -9.5 14.8
17:35 1013 29.91 842 24.86 1.6 34.9 41 -10.3 13.5
17:40 1013 29.91 842 24.86 1.7 35.1 41 -10.3 13.4
17:45 1013 29.91 842 24.86 1.7 35.1 41 -10.2 13.6
17:50 1013 29.91 842 24.86 1.7 35.1 41 -10.2 13.6
17:55 1013 29.91 842 24.86 1.6 34.9 41 -10.2 13.6
18:00 1013 29.91 842 24.86 1.6 34.8 42 -10.1 13.7
18:05 1013 29.91 842 24.86 1.6 34.8 40 -10.6 13
18:10 1013 29.91 842 24.86 1.5 34.8 40 -10.6 12.9
18:15 1013 29.91 843 24.89 1.5 34.7 42 -10.2 13.7
18:20 1013 29.91 843 24.89 1.4 34.6 42 -10.1 13.8
18:25 1014 29.94 843 24.89 1.2 34.2 44 -9.9 14.3
18:30 1014 29.94 843 24.89 1.1 34 45 -9.5 14.9
18:35 1014 29.94 843 24.89 1 33.7 45 -9.7 14.5
18:40 1014 29.94 843 24.89 1 33.8 44 -10 14
18:45 1014 29.94 843 24.89 0.9 33.7 43 -10.2 13.6
18:50 1014 29.94 843 24.89 0.9 33.6 42 -10.8 12.6
18:55 1014 29.94 843 24.89 1 33.7 41 -10.9 12.4
19:00 1014 29.94 843 24.89 0.9 33.6 42 -10.5 13
19:05 1014 29.94 843 24.89 0.6 33 42 -10.9 12.4
19:10 1014 29.94 843 24.89 0.5 33 42 -11.1 12.1
19:15 1014 29.94 843 24.89 0.6 33 41 -11.1 12
19:20 1014 29.94 843 24.89 0.6 33 41 -11.2 11.8
19:25 1014 29.94 843 24.89 0.5 33 42 -11 12.2
19:30 1014 29.94 843 24.89 0.5 32.8 42 -11.2 11.9
19:35 1014 29.94 843 24.89 0.5 32.8 42 -11 12.1
19:40 1014 29.94 843 24.89 0.4 32.6 41 -11.3 11.7
19:45 1014 29.94 843 24.89 0.4 32.7 40 -11.6 11.1
19:50 1014 29.94 844 24.92 0.4 32.7 40 -11.7 10.9
19:55 1014 29.94 844 24.92 0.4 32.7 39 -12 10.4
20:00 1014 29.94 843 24.89 0.5 32.9 39 -11.9 10.6
20:05 1014 29.94 844 24.92 0.5 32.9 39 -11.9 10.6
20:10 1014 29.94 844 24.92 0.5 32.9 39 -11.9 10.6
20:15 1014 29.94 844 24.92 0.5 32.8 38 -12.3 9.9
20:20 1015 29.97 844 24.92 0.6 33 39 -11.8 10.7
20:25 1015 29.97 844 24.92 0.6 33.1 41 -11.4 11.5
20:30 1015 29.97 844 24.92 0.6 33 40 -11.7 11
20:35 1015 29.97 844 24.92 0.7 33.2 39 -11.6 11.1
20:40 1014 29.94 844 24.92 0.7 33.3 41 -11 12.1
20:45 1014 29.94 844 24.92 0.5 32.9 41 -11.3 11.7
20:50 1014 29.94 844 24.92 0.4 32.7 41 -11.3 11.7
20:55 1014 29.94 844 24.92 0.3 32.6 42 -11 12.2
21:00 1014 29.94 844 24.92 0.2 32.4 44 -10.7 12.7
21:05 1014 29.94 844 24.92 0.1 32.2 40 -11.9 10.6
21:10 1014 29.94 843 24.89 0.4 32.7 41 -11.6 11.2
21:15 1014 29.94 843 24.89 0.5 32.9 41 -11.4 11.5
21:20 1014 29.94 843 24.89 0.4 32.8 43 -10.9 12.4
21:25 1014 29.94 843 24.89 0.5 32.9 41 -11.2 11.8
21:30 1014 29.94 843 24.89 0.6 33.1 42 -10.8 12.6
21:35 1014 29.94 843 24.89 0.4 32.8 45 -10.2 13.7
21:40 1014 29.94 843 24.89 0.1 32.1 48 -9.8 14.3
21:45 1014 29.94 843 24.89 -0.1 31.8 48 -9.9 14.1
21:50 1014 29.94 843 24.89 -0.1 31.7 47 -10.3 13.5
21:55 1014 29.94 843 24.89 0 32 46 -10.3 13.5
22:00 1014 29.94 843 24.89 0.1 32.1 46 -10.2 13.6
22:05 1014 29.94 843 24.89 -0.1 31.9 47 -10.1 13.7
22:10 1014 29.94 843 24.89 -0.1 31.9 46 -10.3 13.5
22:15 1014 29.94 843 24.89 -0.1 31.7 46 -10.3 13.4
22:20 1014 29.94 843 24.89 -0.2 31.7 46 -10.5 13
22:25 1014 29.94 843 24.89 0 32 45 -10.5 13.2
22:30 1014 29.94 843 24.89 0 32 45 -10.6 12.9
22:35 1014 29.94 843 24.89 0.1 32.2 46 -10.2 13.6
22:40 1014 29.94 843 24.89 -0.1 31.8 47 -10.2 13.6
22:45 1014 29.94 843 24.89 -0 31.9 46 -10.4 13.2
22:50 1014 29.94 843 24.89 0.2 32.3 46 -10.3 13.5
22:55 1014 29.94 843 24.89 0.2 32.4 46 -10.2 13.7
23:00 1014 29.94 843 24.89 0.3 32.5 47 -9.9 14.3
23:05 1014 29.94 843 24.89 -0.1 31.8 50 -9.5 15
23:10 1014 29.94 843 24.89 -0.5 31.1 50 -9.8 14.4
23:15 1014 29.94 843 24.89 -0.2 31.6 47 -10.2 13.7
23:20 1014 29.94 843 24.89 0.4 32.7 46 -9.9 14.2
23:25 1014 29.94 843 24.89 0.3 32.6 47 -9.7 14.6
23:30 1014 29.94 843 24.89 0.2 32.4 46 -10.1 13.7
23:35 1014 29.94 843 24.89 0.7 33.2 45 -10.1 13.9
23:40 1014 29.94 843 24.89 0.6 33.1 47 -9.5 14.9
23:45 1014 29.94 843 24.89 0.5 32.9 48 -9.4 15.1
23:50 1014 29.94 843 24.89 0.3 32.6 50 -9 15.7
23:55 1014 29.94 843 24.89 0.2 32.3 48 -9.5 15
24:00 1014 29.94 843 24.89 0.5 32.8 48 -9.4 15.1